Seattle, Washington
Traffic Map
Current Weather Conditions
Seattle, Washington
Clear
Clear
35°
Feels Like: 31°
Wind Chill: 31° Ceiling: Unl
Heat Index: 35° Visibility: 10mi
Dew Point: 18° Wind: 5mph
Humidity: 50% Direction: 360° (N)
Pressure: 30.43in Gusts: 0mph
Raw Report DataKBFI 230553Z 36004KT 10SM CLR 02/M08 A3043 RMK AO2 SLP305 T00171078 10039 20017 53015
Traffic Incident Summary
Active as of:
Severity:
Category:
InformationThere was an issue retrieving the traffic information for this location. Please try a different location or try again shortly.
Advertisements